Time;durP1;ratioP1;P1;durP2;ratioP2;P2;SDS_P1;SDS_P2;PMS_P1;PMS_P2;Temp;Humidity;BMP_temperature;BMP_pressure;BME280_temperature;BME280_humidity;BME280_pressure;Samples;Min_cycle;Max_cycle;Signal;HPM_P1;HPM_P2
2024/02/29 00:02:01;;;;;;;32.22;14.13;;;6.70;99.90;;;;;;5019648;28;20486;-68
2024/02/29 00:04:28;;;;;;;33.92;14.05;;;6.70;99.90;;;;;;5023639;28;20053;-68
2024/02/29 00:06:57;;;;;;;34.22;14.30;;;6.60;99.90;;;;;;5024042;28;20045;-67
2024/02/29 00:09:23;;;;;;;27.55;11.95;;;6.60;99.90;;;;;;5023381;28;20553;-68
2024/02/29 00:11:51;;;;;;;40.20;15.35;;;6.60;99.90;;;;;;5023839;28;20048;-68
2024/02/29 00:14:18;;;;;;;30.10;13.30;;;6.60;99.90;;;;;;5005941;28;20132;-68
2024/02/29 00:16:44;;;;;;;31.08;14.80;;;6.60;99.90;;;;;;5023993;28;20423;-68
2024/02/29 00:19:14;;;;;;;32.97;13.98;;;6.60;99.90;;;;;;5022686;28;20049;-68
2024/02/29 00:21:40;;;;;;;30.47;13.07;;;6.60;99.90;;;;;;5023005;28;20498;-67
2024/02/29 00:24:07;;;;;;;38.08;15.88;;;6.60;99.90;;;;;;5023020;28;20053;-67
2024/02/29 00:26:33;;;;;;;37.80;14.93;;;6.60;99.90;;;;;;5019980;28;20114;-68
2024/02/29 00:29:01;;;;;;;34.13;16.52;;;6.60;99.90;;;;;;5024247;28;20088;-68
2024/02/29 00:31:27;;;;;;;36.30;15.45;;;6.60;99.90;;;;;;5021930;28;20055;-67
2024/02/29 00:33:52;;;;;;;32.10;13.52;;;6.60;99.90;;;;;;5041482;28;20161;-68
2024/02/29 00:36:19;;;;;;;37.97;14.63;;;6.60;99.90;;;;;;5021567;28;20883;-68
2024/02/29 00:38:45;;;;;;;31.65;14.43;;;6.50;99.90;;;;;;5042405;28;20396;-68
2024/02/29 00:41:14;;;;;;;37.92;15.07;;;6.40;99.90;;;;;;5040660;28;20549;-68
2024/02/29 00:43:43;;;;;;;36.45;15.55;;;6.40;99.90;;;;;;5017120;28;20154;-68
2024/02/29 00:46:08;;;;;;;42.90;15.65;;;6.30;99.90;;;;;;5041030;28;20074;-68
2024/02/29 00:48:36;;;;;;;30.15;12.25;;;6.20;99.90;;;;;;5023077;28;20051;-68
2024/02/29 00:51:02;;;;;;;36.78;14.40;;;6.10;99.90;;;;;;5005040;28;20049;-67
2024/02/29 00:53:28;;;;;;;35.25;14.57;;;6.00;99.90;;;;;;5022394;28;20052;-68
2024/02/29 00:55:53;;;;;;;34.65;14.18;;;5.90;99.90;;;;;;5039283;28;20049;-67
2024/02/29 00:58:19;;;;;;;31.83;14.63;;;5.90;99.90;;;;;;5022492;28;20176;-68
2024/02/29 01:00:45;;;;;;;31.27;13.05;;;5.80;99.90;;;;;;5041084;28;20482;-68
2024/02/29 01:03:11;;;;;;;34.25;13.55;;;5.80;99.90;;;;;;5005163;28;20057;-68
2024/02/29 01:05:36;;;;;;;33.15;14.57;;;5.70;99.90;;;;;;5022242;28;20406;-68
2024/02/29 01:08:02;;;;;;;25.13;11.02;;;5.70;99.90;;;;;;5023860;28;20060;-68
2024/02/29 01:10:28;;;;;;;33.65;14.27;;;5.70;99.90;;;;;;5040219;28;20047;-68
2024/02/29 01:12:54;;;;;;;37.17;14.73;;;5.70;99.90;;;;;;5041388;28;20399;-68
2024/02/29 01:15:20;;;;;;;31.63;14.48;;;5.60;99.90;;;;;;5022049;28;20143;-68
2024/02/29 01:17:46;;;;;;;36.25;14.40;;;5.60;99.90;;;;;;4999270;28;20103;-68
2024/02/29 01:20:12;;;;;;;34.97;13.68;;;5.60;99.90;;;;;;5021831;28;20064;-67
2024/02/29 01:22:38;;;;;;;25.77;12.40;;;5.60;99.90;;;;;;5036988;28;20053;-68
2024/02/29 01:25:04;;;;;;;33.75;13.90;;;5.60;99.90;;;;;;5023410;28;20383;-67
2024/02/29 01:27:30;;;;;;;33.13;13.65;;;5.60;99.90;;;;;;5023104;28;20052;-68
2024/02/29 01:29:56;;;;;;;19.65;9.32;;;5.50;99.90;;;;;;5023057;28;20045;-68
2024/02/29 01:32:22;;;;;;;32.35;14.25;;;5.50;99.90;;;;;;5017410;28;20056;-68
2024/02/29 01:34:48;;;;;;;30.52;13.40;;;5.50;99.90;;;;;;5009932;28;20128;-68
2024/02/29 01:37:14;;;;;;;31.88;13.52;;;5.50;99.90;;;;;;5025179;28;20506;-67
2024/02/29 01:39:41;;;;;;;36.88;15.27;;;5.40;99.90;;;;;;5044976;28;20049;-68
2024/02/29 01:42:07;;;;;;;33.42;13.57;;;5.40;99.90;;;;;;5025107;28;20413;-67
2024/02/29 01:44:38;;;;;;;33.55;14.02;;;5.40;99.90;;;;;;5025663;28;20120;-68
2024/02/29 01:47:06;;;;;;;35.10;14.35;;;5.40;99.90;;;;;;5024711;28;20060;-68
2024/02/29 01:49:34;;;;;;;28.15;13.27;;;5.50;99.90;;;;;;5011096;28;20522;-68
2024/02/29 01:52:00;;;;;;;26.63;11.57;;;5.50;99.90;;;;;;5026449;28;20053;-68
2024/02/29 01:54:26;;;;;;;34.97;13.52;;;5.50;99.90;;;;;;5043386;28;20053;-68
2024/02/29 01:56:51;;;;;;;27.70;14.20;;;5.50;99.90;;;;;;5044520;28;20563;-68
2024/02/29 01:59:17;;;;;;;21.70;11.70;;;5.50;99.90;;;;;;5025777;28;20174;-68
2024/02/29 02:01:43;;;;;;;27.95;11.57;;;5.50;99.90;;;;;;5024804;28;20455;-68
2024/02/29 02:04:09;;;;;;;35.05;14.25;;;5.50;99.90;;;;;;5022903;28;20696;-68
2024/02/29 02:06:35;;;;;;;32.47;14.07;;;5.40;99.90;;;;;;5024422;28;20466;-67
2024/02/29 02:09:01;;;;;;;29.42;12.43;;;5.40;99.90;;;;;;5026169;28;20641;-68
2024/02/29 02:11:27;;;;;;;34.85;14.30;;;5.40;99.90;;;;;;5024994;28;20044;-67
2024/02/29 02:13:54;;;;;;;27.48;13.20;;;5.40;99.90;;;;;;5042206;28;20334;-68
2024/02/29 02:16:20;;;;;;;22.63;11.48;;;5.40;99.90;;;;;;5024941;28;20053;-68
2024/02/29 02:18:45;;;;;;;26.42;13.02;;;5.50;99.90;;;;;;5022124;28;20490;-68
2024/02/29 02:21:11;;;;;;;31.88;13.63;;;5.50;99.90;;;;;;5005715;28;20165;-68
2024/02/29 02:23:37;;;;;;;25.38;11.68;;;5.50;99.90;;;;;;5025278;28;20040;-67
2024/02/29 02:26:03;;;;;;;28.75;12.20;;;5.60;99.90;;;;;;4989588;28;20063;-68
2024/02/29 02:28:29;;;;;;;19.70;8.93;;;5.60;99.90;;;;;;5024981;28;20482;-67
2024/02/29 02:30:55;;;;;;;28.67;12.35;;;5.60;99.90;;;;;;5044369;28;20047;-68
2024/02/29 02:33:22;;;;;;;24.80;11.80;;;5.70;99.90;;;;;;4993267;28;20045;-68
2024/02/29 02:35:48;;;;;;;23.63;10.63;;;5.60;99.90;;;;;;5023824;28;20041;-68
2024/02/29 02:38:14;;;;;;;33.03;11.93;;;5.70;99.90;;;;;;5020401;28;20402;-68
2024/02/29 02:40:39;;;;;;;30.65;12.55;;;5.70;99.90;;;;;;5024607;28;20045;-68
2024/02/29 02:43:05;;;;;;;27.13;11.52;;;5.70;99.90;;;;;;5042895;28;20052;-68
2024/02/29 02:45:31;;;;;;;21.80;10.95;;;5.70;99.90;;;;;;5035407;28;20080;-68
2024/02/29 02:47:57;;;;;;;27.63;11.65;;;5.70;99.90;;;;;;5029167;28;20049;-68
2024/02/29 02:50:28;;;;;;;28.85;13.95;;;5.80;99.90;;;;;;5038714;28;20133;-68
2024/02/29 02:52:54;;;;;;;27.42;11.55;;;5.80;99.90;;;;;;5022244;28;20049;-67
2024/02/29 02:55:20;;;;;;;24.33;11.57;;;5.80;99.90;;;;;;5025067;28;20045;-67
2024/02/29 02:57:46;;;;;;;27.75;11.63;;;5.80;99.90;;;;;;5021425;28;20519;-68
2024/02/29 03:00:12;;;;;;;25.05;11.30;;;5.80;99.90;;;;;;5025528;28;20130;-68
2024/02/29 03:02:41;;;;;;;32.67;13.65;;;5.80;99.90;;;;;;5006981;28;20385;-68
2024/02/29 03:05:09;;;;;;;28.27;13.15;;;5.80;99.90;;;;;;5043454;28;20060;-68
2024/02/29 03:07:34;;;;;;;27.55;11.20;;;5.80;99.90;;;;;;5041179;28;20455;-67
2024/02/29 03:10:00;;;;;;;28.73;11.77;;;5.90;99.90;;;;;;5025416;28;20125;-68
2024/02/29 03:12:26;;;;;;;22.23;10.45;;;5.80;99.90;;;;;;5042133;28;20313;-67
2024/02/29 03:14:51;;;;;;;27.13;10.77;;;5.90;99.90;;;;;;5024846;28;20041;-68
2024/02/29 03:17:18;;;;;;;27.50;10.85;;;5.80;99.90;;;;;;5016191;28;20052;-68
2024/02/29 03:19:43;;;;;;;30.38;11.00;;;5.80;99.90;;;;;;5023243;28;20053;-68
2024/02/29 03:22:09;;;;;;;25.90;9.63;;;5.90;99.90;;;;;;5024160;28;20041;-68
2024/02/29 03:24:41;;;;;;;21.25;9.00;;;5.80;99.90;;;;;;5023897;28;20131;-68
2024/02/29 03:27:07;;;;;;;22.88;10.55;;;5.90;99.90;;;;;;5032404;28;20464;-68
2024/02/29 03:29:33;;;;;;;16.23;8.18;;;5.90;99.90;;;;;;5041609;28;20072;-68
2024/02/29 03:31:59;;;;;;;21.40;10.60;;;5.90;99.90;;;;;;5023454;28;20041;-68
2024/02/29 03:34:24;;;;;;;23.92;11.38;;;6.00;99.90;;;;;;5024733;28;20048;-68
2024/02/29 03:36:50;;;;;;;24.52;10.10;;;6.00;99.90;;;;;;5023980;28;20490;-68
2024/02/29 03:39:16;;;;;;;24.55;10.95;;;6.00;99.90;;;;;;5024209;28;20053;-68
2024/02/29 03:41:42;;;;;;;18.65;8.10;;;5.90;99.90;;;;;;5016152;28;20114;-68
2024/02/29 03:44:07;;;;;;;15.50;7.55;;;6.00;99.90;;;;;;5024634;28;20407;-68
2024/02/29 03:46:33;;;;;;;22.17;9.80;;;5.90;99.90;;;;;;5021891;28;20044;-68
2024/02/29 03:48:59;;;;;;;14.35;7.75;;;5.90;99.90;;;;;;5019776;28;20037;-68
2024/02/29 03:51:25;;;;;;;19.63;8.63;;;6.00;99.90;;;;;;5017069;28;20041;-68
2024/02/29 03:53:51;;;;;;;15.38;7.57;;;6.00;99.90;;;;;;5029261;28;20407;-68
2024/02/29 03:56:17;;;;;;;18.67;8.98;;;6.00;99.90;;;;;;5041919;28;20047;-68
2024/02/29 03:58:42;;;;;;;21.23;9.93;;;6.00;99.90;;;;;;5006309;28;20541;-68
2024/02/29 04:01:10;;;;;;;20.35;10.13;;;6.00;99.90;;;;;;5042457;28;20586;-68
2024/02/29 04:03:38;;;;;;;20.38;10.68;;;6.00;99.90;;;;;;5022419;28;20040;-68
2024/02/29 04:06:05;;;;;;;22.20;10.52;;;6.00;99.90;;;;;;5042772;28;20045;-68
2024/02/29 04:08:32;;;;;;;14.68;7.88;;;6.00;99.90;;;;;;5041225;28;20060;-67
2024/02/29 04:10:57;;;;;;;22.38;7.93;;;6.00;99.90;;;;;;5007080;28;20139;-68
2024/02/29 04:13:23;;;;;;;19.30;8.75;;;6.00;99.90;;;;;;5037871;28;20135;-68
2024/02/29 04:15:49;;;;;;;13.32;7.95;;;6.10;99.90;;;;;;5023183;28;20068;-68
2024/02/29 04:18:14;;;;;;;18.75;7.20;;;6.00;99.90;;;;;;5040228;28;20048;-68
2024/02/29 04:20:40;;;;;;;22.58;9.93;;;6.00;99.90;;;;;;5019445;28;20053;-68
2024/02/29 04:23:06;;;;;;;12.18;6.40;;;6.00;99.90;;;;;;5020652;28;20607;-67
2024/02/29 04:25:32;;;;;;;18.13;9.15;;;6.00;99.90;;;;;;5019556;28;20080;-68
2024/02/29 04:27:57;;;;;;;16.13;7.80;;;6.00;99.90;;;;;;5020160;28;20140;-68
2024/02/29 04:30:23;;;;;;;24.48;10.73;;;6.00;99.90;;;;;;5021317;28;20084;-67
2024/02/29 04:32:49;;;;;;;17.50;9.73;;;6.00;99.90;;;;;;5018358;28;20052;-68
2024/02/29 04:35:15;;;;;;;21.08;10.15;;;6.00;99.90;;;;;;5021448;28;20057;-67
2024/02/29 04:37:47;;;;;;;21.88;10.50;;;6.00;99.90;;;;;;5019089;28;20068;-68
2024/02/29 04:40:13;;;;;;;21.02;9.55;;;6.00;99.90;;;;;;5020124;28;20049;-67
2024/02/29 04:42:40;;;;;;;18.70;10.02;;;6.00;99.90;;;;;;5007514;28;20499;-68
2024/02/29 04:45:07;;;;;;;23.10;10.38;;;6.00;99.90;;;;;;5019046;28;20076;-68
2024/02/29 04:47:34;;;;;;;19.25;9.88;;;6.00;99.90;;;;;;4999740;28;20594;-67
2024/02/29 04:50:00;;;;;;;18.65;10.68;;;6.00;99.90;;;;;;5018416;28;20046;-68
2024/02/29 04:52:26;;;;;;;23.20;10.65;;;6.00;99.90;;;;;;5000104;28;20049;-68
2024/02/29 04:54:52;;;;;;;24.45;10.55;;;6.00;99.90;;;;;;5000545;28;20508;-68
2024/02/29 04:57:17;;;;;;;23.35;10.75;;;6.00;99.90;;;;;;5019640;28;20328;-68
2024/02/29 04:59:43;;;;;;;16.80;8.75;;;6.00;99.90;;;;;;5015323;28;20084;-68
2024/02/29 05:02:09;;;;;;;23.25;11.07;;;6.00;99.90;;;;;;5000929;28;20160;-68
2024/02/29 05:04:36;;;;;;;19.70;9.75;;;6.00;99.90;;;;;;4998548;28;20505;-68
2024/02/29 05:07:01;;;;;;;13.82;7.68;;;6.00;99.90;;;;;;5001071;28;20515;-67
2024/02/29 05:09:27;;;;;;;20.23;9.02;;;6.00;99.90;;;;;;5023400;28;20458;-67
2024/02/29 05:11:53;;;;;;;28.58;11.13;;;6.00;99.90;;;;;;5002184;28;20132;-68
2024/02/29 05:14:20;;;;;;;20.73;8.25;;;6.00;99.90;;;;;;4999259;28;20447;-67
2024/02/29 05:16:45;;;;;;;18.30;9.55;;;6.00;99.90;;;;;;5018983;28;20484;-68
2024/02/29 05:19:12;;;;;;;13.68;8.18;;;6.00;99.90;;;;;;5020441;28;20432;-67
2024/02/29 05:21:38;;;;;;;17.00;9.10;;;6.00;99.90;;;;;;5018668;28;20064;-68
2024/02/29 05:24:04;;;;;;;18.15;8.93;;;5.90;99.90;;;;;;5003718;28;20445;-67
2024/02/29 05:26:30;;;;;;;15.07;7.45;;;5.90;99.90;;;;;;5020051;28;20149;-67
2024/02/29 05:28:56;;;;;;;14.25;7.18;;;5.90;99.90;;;;;;5022117;28;20045;-68
2024/02/29 05:31:22;;;;;;;17.77;9.05;;;5.80;99.90;;;;;;5019259;28;20128;-67
2024/02/29 05:33:48;;;;;;;9.40;5.55;;;5.90;99.90;;;;;;5003273;28;20053;-67
2024/02/29 05:36:16;;;;;;;17.20;9.07;;;5.90;99.90;;;;;;4986468;28;20045;-67
2024/02/29 05:38:44;;;;;;;17.15;7.60;;;5.80;99.90;;;;;;5021582;28;20045;-67
2024/02/29 05:41:09;;;;;;;13.93;7.85;;;5.80;99.90;;;;;;4984761;28;20052;-67
2024/02/29 05:43:35;;;;;;;11.27;6.35;;;5.80;99.90;;;;;;5003498;28;20033;-68
2024/02/29 05:46:01;;;;;;;15.82;6.80;;;5.90;99.90;;;;;;5004129;28;20057;-67
2024/02/29 05:48:27;;;;;;;15.55;7.57;;;5.90;99.90;;;;;;5004513;28;20638;-68
2024/02/29 05:50:56;;;;;;;14.95;6.90;;;5.90;99.90;;;;;;5002780;28;20049;-67
2024/02/29 05:53:21;;;;;;;12.90;7.13;;;5.90;99.90;;;;;;5002396;28;20207;-67
2024/02/29 05:55:47;;;;;;;12.30;6.68;;;5.90;99.90;;;;;;5020608;28;20132;-68
2024/02/29 05:58:13;;;;;;;11.75;5.32;;;5.90;99.90;;;;;;5022872;28;20193;-68
2024/02/29 06:00:40;;;;;;;13.77;6.03;;;5.90;99.90;;;;;;5002637;28;20045;-68
2024/02/29 06:03:06;;;;;;;12.52;6.40;;;5.90;99.90;;;;;;4999040;28;20053;-68
2024/02/29 06:05:35;;;;;;;11.07;6.07;;;6.00;99.90;;;;;;5021978;28;20076;-67
2024/02/29 06:08:03;;;;;;;11.00;6.05;;;6.00;99.90;;;;;;5021686;28;20045;-67
2024/02/29 06:10:29;;;;;;;13.90;6.72;;;5.90;99.90;;;;;;5022028;28;20037;-68
2024/02/29 06:12:55;;;;;;;10.88;6.60;;;5.90;99.90;;;;;;5002285;28;20396;-67
2024/02/29 06:15:21;;;;;;;16.88;6.00;;;6.00;99.90;;;;;;5004208;28;20211;-67
2024/02/29 06:17:46;;;;;;;14.23;6.60;;;6.00;99.90;;;;;;4998549;28;20038;-67
2024/02/29 06:20:13;;;;;;;15.30;6.70;;;6.00;99.90;;;;;;5004520;28;20395;-68
2024/02/29 06:22:39;;;;;;;9.75;5.82;;;6.00;99.90;;;;;;5018458;28;20053;-68
2024/02/29 06:25:05;;;;;;;11.05;6.13;;;6.00;99.90;;;;;;5021640;28;20069;-68
2024/02/29 06:27:32;;;;;;;14.10;4.32;;;6.00;99.90;;;;;;5004114;28;20054;-67
2024/02/29 06:29:58;;;;;;;9.60;5.78;;;6.10;99.90;;;;;;5002074;28;20041;-68
2024/02/29 06:32:24;;;;;;;9.80;5.75;;;6.10;99.90;;;;;;5003806;28;20049;-67
2024/02/29 06:34:49;;;;;;;9.13;5.38;;;6.20;99.90;;;;;;5019967;28;20270;-67
2024/02/29 06:37:15;;;;;;;9.82;5.30;;;6.20;99.90;;;;;;4987933;28;20551;-68
2024/02/29 06:39:41;;;;;;;10.23;5.90;;;6.20;99.90;;;;;;5020419;28;20100;-68
2024/02/29 06:42:07;;;;;;;10.27;5.75;;;6.20;99.90;;;;;;5000423;28;20053;-68
2024/02/29 06:44:33;;;;;;;14.65;6.20;;;6.30;99.90;;;;;;5019571;28;20146;-68
2024/02/29 06:46:59;;;;;;;9.73;4.70;;;6.30;99.90;;;;;;5021883;28;20049;-67
2024/02/29 06:49:24;;;;;;;12.45;5.60;;;6.30;99.90;;;;;;5003524;28;20048;-67
2024/02/29 06:51:51;;;;;;;9.23;4.82;;;6.30;99.90;;;;;;5019729;28;20045;-67
2024/02/29 06:54:17;;;;;;;18.60;5.68;;;6.30;99.90;;;;;;5003119;28;20137;-68
2024/02/29 06:56:44;;;;;;;10.93;5.55;;;6.40;99.90;;;;;;5001785;28;20155;-68
2024/02/29 06:59:10;;;;;;;8.20;3.67;;;6.40;99.90;;;;;;5016961;28;20085;-68
2024/02/29 07:01:36;;;;;;;13.82;5.72;;;6.40;99.90;;;;;;5002487;28;20077;-67
2024/02/29 07:04:03;;;;;;;7.43;5.18;;;6.40;99.90;;;;;;5016623;28;20053;-67
2024/02/29 07:06:28;;;;;;;11.07;5.45;;;6.50;99.90;;;;;;5021421;28;20442;-67
2024/02/29 07:08:54;;;;;;;6.95;4.03;;;6.50;99.90;;;;;;5019251;28;20061;-68
2024/02/29 07:11:20;;;;;;;10.52;5.70;;;6.50;99.90;;;;;;5003248;28;20576;-68
2024/02/29 07:13:47;;;;;;;8.15;3.20;;;6.50;99.90;;;;;;4982409;28;20082;-68
2024/02/29 07:16:13;;;;;;;8.90;5.10;;;6.40;99.90;;;;;;5001517;28;20487;-67
2024/02/29 07:18:40;;;;;;;3.28;2.65;;;6.50;99.90;;;;;;5001492;28;20073;-67
2024/02/29 07:21:06;;;;;;;10.10;5.78;;;6.50;99.90;;;;;;5000599;28;20136;-68
2024/02/29 07:23:32;;;;;;;5.75;3.28;;;6.50;99.90;;;;;;5018127;28;20070;-68
2024/02/29 07:26:02;;;;;;;9.43;5.30;;;6.50;99.90;;;;;;4999984;28;20053;-67
2024/02/29 07:28:27;;;;;;;4.53;3.08;;;6.50;99.90;;;;;;5003854;28;20061;-67
2024/02/29 07:30:53;;;;;;;10.60;5.88;;;6.60;99.90;;;;;;5014593;28;20072;-68
2024/02/29 07:33:19;;;;;;;1.63;1.15;;;6.60;99.90;;;;;;5001307;28;20048;-68
2024/02/29 07:35:46;;;;;;;8.88;5.18;;;6.60;99.90;;;;;;4997755;28;20049;-68
2024/02/29 07:38:12;;;;;;;9.50;5.05;;;6.60;99.90;;;;;;5002627;28;20080;-68
2024/02/29 07:40:37;;;;;;;10.13;4.70;;;6.60;99.90;;;;;;5004324;28;20052;-67
2024/02/29 07:43:03;;;;;;;10.13;5.15;;;6.60;99.90;;;;;;5002101;28;20385;-67
2024/02/29 07:45:29;;;;;;;9.05;3.38;;;6.50;99.90;;;;;;4984897;28;20033;-67
2024/02/29 07:47:55;;;;;;;10.07;5.20;;;6.60;99.90;;;;;;5018568;28;20038;-68
2024/02/29 07:50:20;;;;;;;9.27;5.40;;;6.50;99.90;;;;;;5003493;28;20244;-68
2024/02/29 07:52:47;;;;;;;6.15;3.95;;;6.50;99.90;;;;;;5000654;28;20042;-68
2024/02/29 07:55:16;;;;;;;11.35;4.50;;;6.50;99.90;;;;;;4986177;28;20060;-68
2024/02/29 07:57:46;;;;;;;9.80;4.68;;;6.50;99.90;;;;;;5019617;28;20068;-67
2024/02/29 08:00:12;;;;;;;7.25;3.65;;;6.50;99.90;;;;;;5014849;28;20041;-67
2024/02/29 08:02:42;;;;;;;8.00;4.30;;;6.50;99.90;;;;;;5015221;28;20052;-68
2024/02/29 08:05:08;;;;;;;8.90;4.68;;;6.60;99.90;;;;;;5016906;28;20102;-68
2024/02/29 08:07:35;;;;;;;5.97;4.68;;;6.60;99.90;;;;;;4983936;28;20042;-68
2024/02/29 08:10:02;;;;;;;9.18;4.97;;;6.60;99.90;;;;;;4993010;28;20080;-68
2024/02/29 08:12:27;;;;;;;7.65;3.58;;;6.60;99.90;;;;;;5002000;28;20038;-68
2024/02/29 08:14:53;;;;;;;8.88;5.60;;;6.60;99.90;;;;;;5000117;28;20049;-68
2024/02/29 08:17:19;;;;;;;10.02;4.30;;;6.60;99.90;;;;;;5003323;28;20629;-68
2024/02/29 08:19:45;;;;;;;7.60;5.03;;;6.70;99.90;;;;;;5000960;28;20066;-68
2024/02/29 08:22:13;;;;;;;10.02;4.95;;;6.70;99.90;;;;;;5017985;28;20139;-68
2024/02/29 08:24:39;;;;;;;10.15;4.38;;;6.70;99.90;;;;;;5000795;28;20078;-68
2024/02/29 08:27:06;;;;;;;8.45;5.28;;;6.70;99.90;;;;;;5014522;28;20041;-68
2024/02/29 08:29:32;;;;;;;8.05;4.72;;;6.60;99.90;;;;;;5019089;28;20413;-68
2024/02/29 08:31:57;;;;;;;6.60;4.13;;;6.70;99.90;;;;;;4982257;28;20181;-68
2024/02/29 08:34:23;;;;;;;6.28;4.30;;;6.70;99.90;;;;;;5016616;28;20050;-68
2024/02/29 08:36:49;;;;;;;5.35;3.53;;;6.70;99.90;;;;;;5002295;28;20045;-68
2024/02/29 08:39:15;;;;;;;6.55;4.90;;;6.70;99.90;;;;;;5000143;28;20075;-68
2024/02/29 08:41:44;;;;;;;7.45;5.18;;;6.70;99.90;;;;;;5020950;28;20053;-68
2024/02/29 08:44:11;;;;;;;5.22;3.92;;;6.70;99.90;;;;;;5001612;28;20052;-68
2024/02/29 08:46:36;;;;;;;4.07;3.03;;;6.70;99.90;;;;;;4984122;28;20056;-68
2024/02/29 08:49:02;;;;;;;7.88;4.22;;;6.70;99.90;;;;;;5005497;28;20049;-68
2024/02/29 08:51:28;;;;;;;9.63;4.75;;;6.80;99.90;;;;;;4974841;28;20040;-68
2024/02/29 08:53:54;;;;;;;7.55;5.22;;;6.80;99.90;;;;;;5002514;28;20045;-68
2024/02/29 08:56:20;;;;;;;7.72;4.15;;;6.80;99.90;;;;;;4988489;28;20258;-68
2024/02/29 08:58:45;;;;;;;6.60;4.03;;;6.80;99.90;;;;;;5021239;28;20064;-68
2024/02/29 09:01:11;;;;;;;8.40;4.25;;;6.80;99.90;;;;;;5020371;28;20052;-68
2024/02/29 09:03:37;;;;;;;6.85;3.88;;;6.90;99.90;;;;;;5004936;28;20051;-68
2024/02/29 09:06:03;;;;;;;9.43;4.95;;;6.90;99.90;;;;;;4997375;28;20123;-68
2024/02/29 09:08:32;;;;;;;2.90;2.60;;;6.90;99.90;;;;;;5019319;28;20034;-68
2024/02/29 09:10:59;;;;;;;10.13;4.50;;;7.00;99.90;;;;;;5005471;28;20076;-69
2024/02/29 09:13:25;;;;;;;9.60;4.60;;;6.90;99.90;;;;;;4999291;28;20049;-68
2024/02/29 09:15:53;;;;;;;9.15;4.38;;;7.00;99.90;;;;;;5001599;28;20048;-68
2024/02/29 09:18:20;;;;;;;9.75;5.35;;;7.00;99.90;;;;;;5017643;28;20049;-69
2024/02/29 09:20:46;;;;;;;6.63;3.08;;;7.00;99.90;;;;;;5008297;28;20130;-68
2024/02/29 09:23:11;;;;;;;5.13;2.78;;;7.00;99.90;;;;;;5008555;28;21067;-68
2024/02/29 09:25:37;;;;;;;8.70;3.55;;;7.10;99.90;;;;;;4993209;28;20813;-68
2024/02/29 09:28:03;;;;;;;5.45;3.80;;;7.10;99.90;;;;;;5006234;28;20447;-69
2024/02/29 09:30:29;;;;;;;6.40;4.40;;;7.10;99.90;;;;;;5004028;28;20079;-68
2024/02/29 09:32:55;;;;;;;12.70;4.75;;;7.10;99.90;;;;;;5001704;28;20049;-68
2024/02/29 09:35:21;;;;;;;10.20;5.15;;;7.10;99.90;;;;;;5018389;28;20077;-69
2024/02/29 09:37:47;;;;;;;5.78;4.07;;;7.20;99.90;;;;;;5004812;28;20386;-68
2024/02/29 09:40:13;;;;;;;7.43;4.50;;;7.20;99.90;;;;;;4993027;28;20126;-69
2024/02/29 09:42:39;;;;;;;7.05;4.07;;;7.20;99.90;;;;;;5003954;28;20617;-69
2024/02/29 09:45:12;;;;;;;6.63;4.07;;;7.20;99.90;;;;;;5000892;28;20314;-69
2024/02/29 09:47:39;;;;;;;6.32;3.78;;;7.20;99.90;;;;;;5001654;28;20042;-69
2024/02/29 09:50:08;;;;;;;6.60;4.43;;;7.20;99.90;;;;;;4999674;28;20034;-69
2024/02/29 09:52:39;;;;;;;8.63;4.50;;;7.30;99.90;;;;;;5001337;28;20068;-69
2024/02/29 09:55:12;;;;;;;10.38;5.13;;;7.30;99.90;;;;;;5019986;28;20057;-69
2024/02/29 09:57:38;;;;;;;7.72;4.22;;;7.30;99.90;;;;;;4997019;28;20046;-70
2024/02/29 10:00:05;;;;;;;7.80;4.97;;;7.40;99.90;;;;;;5018507;28;20778;-70
2024/02/29 10:02:33;;;;;;;9.35;4.85;;;7.40;99.90;;;;;;5003926;28;20072;-69
2024/02/29 10:04:58;;;;;;;9.85;4.68;;;7.40;99.90;;;;;;5004549;28;20131;-70
2024/02/29 10:07:26;;;;;;;12.57;4.80;;;7.40;99.90;;;;;;5001226;28;20052;-70
2024/02/29 10:09:54;;;;;;;7.00;5.28;;;7.50;99.90;;;;;;5002242;28;20041;-71
2024/02/29 10:12:20;;;;;;;8.57;4.50;;;7.50;99.90;;;;;;4997039;28;20045;-70
2024/02/29 10:14:47;;;;;;;8.40;5.00;;;7.50;99.90;;;;;;5000398;28;20076;-71
2024/02/29 10:17:12;;;;;;;7.43;4.68;;;7.50;99.90;;;;;;5002564;28;20054;-70
2024/02/29 10:19:38;;;;;;;6.18;4.35;;;7.50;99.90;;;;;;4998817;28;20061;-71
2024/02/29 10:22:04;;;;;;;8.63;4.75;;;7.50;99.90;;;;;;4986334;28;20104;-71
2024/02/29 10:24:30;;;;;;;6.90;4.40;;;7.50;99.90;;;;;;4999455;28;20116;-71
2024/02/29 10:27:02;;;;;;;10.07;5.32;;;7.50;99.90;;;;;;5001321;28;20455;-71
2024/02/29 10:29:31;;;;;;;12.10;7.22;;;7.50;99.90;;;;;;4996712;28;20046;-71
2024/02/29 10:31:58;;;;;;;8.57;5.40;;;7.50;99.90;;;;;;4981721;28;20044;-72
2024/02/29 10:34:24;;;;;;;6.82;4.88;;;7.50;99.90;;;;;;4999916;28;20045;-72
2024/02/29 10:36:50;;;;;;;8.90;6.03;;;7.50;99.90;;;;;;4998006;28;20041;-71
2024/02/29 10:39:16;;;;;;;12.60;6.65;;;7.50;99.90;;;;;;4987471;28;20053;-71
2024/02/29 10:41:51;;;;;;;11.20;6.07;;;7.50;99.90;;;;;;5003377;28;20492;-71
2024/02/29 10:44:21;;;;;;;9.80;5.18;;;7.50;99.90;;;;;;5000125;28;20411;-72
2024/02/29 10:46:53;;;;;;;8.32;5.18;;;7.40;99.90;;;;;;4999589;28;20041;-71
2024/02/29 10:49:30;;;;;;;11.15;5.63;;;7.40;99.90;;;;;;4997393;28;20057;-71
2024/02/29 10:52:20;;;;;;;12.52;6.55;;;7.40;99.90;;;;;;4998782;28;20041;-72
2024/02/29 10:54:59;;;;;;;12.18;6.22;;;7.50;99.90;;;;;;4995316;28;20041;-71
2024/02/29 10:57:28;;;;;;;11.80;5.65;;;7.50;99.90;;;;;;5013257;28;20786;-72
2024/02/29 11:00:05;;;;;;;11.32;5.65;;;7.60;99.90;;;;;;5002537;28;20539;-71
2024/02/29 11:02:31;;;;;;;9.43;5.80;;;7.50;99.90;;;;;;4972475;28;20046;-71
2024/02/29 11:04:57;;;;;;;11.75;6.07;;;7.60;99.90;;;;;;4965003;28;20436;-72
2024/02/29 11:07:24;;;;;;;10.45;6.47;;;7.60;99.90;;;;;;5014402;28;20496;-72
2024/02/29 11:09:51;;;;;;;10.60;6.68;;;7.50;99.90;;;;;;5014615;28;20553;-72
2024/02/29 11:12:17;;;;;;;11.43;6.90;;;7.60;99.90;;;;;;4998929;28;20396;-72
2024/02/29 11:14:45;;;;;;;10.55;6.38;;;7.70;99.90;;;;;;4996929;28;20073;-72
2024/02/29 11:17:14;;;;;;;7.57;4.35;;;7.70;99.90;;;;;;5003528;28;20045;-72
2024/02/29 11:19:40;;;;;;;9.17;3.73;;;7.70;99.90;;;;;;4999801;28;20058;-72
2024/02/29 11:22:13;;;;;;;11.60;4.95;;;7.70;99.90;;;;;;5001161;28;20115;-72
2024/02/29 11:24:42;;;;;;;13.18;6.35;;;7.60;99.90;;;;;;4997775;28;20048;-72
2024/02/29 11:27:10;;;;;;;9.80;5.72;;;7.70;99.90;;;;;;5000340;28;20076;-71
2024/02/29 11:29:36;;;;;;;14.02;6.40;;;7.70;99.90;;;;;;4985072;28;20045;-72
2024/02/29 11:32:04;;;;;;;8.38;5.55;;;7.60;99.90;;;;;;5000872;28;20040;-73
2024/02/29 11:34:30;;;;;;;10.73;5.25;;;7.70;99.90;;;;;;4999164;28;20041;-72
2024/02/29 11:37:09;;;;;;;8.95;4.68;;;7.60;99.90;;;;;;5123997;27;20487;-72
2024/02/29 11:39:35;;;;;;;6.90;4.22;;;7.60;99.90;;;;;;5095465;28;20455;-71
2024/02/29 11:42:06;;;;;;;10.48;6.10;;;7.50;99.90;;;;;;5100197;28;20052;-71
2024/02/29 11:44:36;;;;;;;8.45;4.95;;;7.60;99.90;;;;;;5085329;28;20247;-71
2024/02/29 11:47:02;;;;;;;10.93;6.13;;;7.50;99.90;;;;;;5066037;28;20135;-71
2024/02/29 11:49:28;;;;;;;6.88;4.70;;;7.60;99.90;;;;;;5081784;28;20051;-71
2024/02/29 11:51:55;;;;;;;14.20;6.78;;;7.60;99.90;;;;;;5084978;28;20156;-71
2024/02/29 11:54:21;;;;;;;9.77;5.45;;;7.60;99.90;;;;;;5068983;28;20047;-71
2024/02/29 11:56:47;;;;;;;6.07;4.20;;;7.60;99.90;;;;;;5087402;28;20040;-71
2024/02/29 11:59:15;;;;;;;14.32;6.00;;;7.60;99.90;;;;;;5083528;28;20402;-71
2024/02/29 12:01:42;;;;;;;11.43;6.38;;;7.70;99.90;;;;;;5089617;28;20494;-71
2024/02/29 12:04:08;;;;;;;10.20;6.13;;;7.70;99.90;;;;;;5062925;28;20052;-71
2024/02/29 12:06:35;;;;;;;11.90;4.97;;;7.70;99.90;;;;;;5092707;28;20084;-71
2024/02/29 12:09:01;;;;;;;9.82;6.05;;;7.70;99.90;;;;;;5067111;28;20044;-71
2024/02/29 12:11:28;;;;;;;12.35;5.93;;;7.70;99.90;;;;;;5088026;28;20097;-71
2024/02/29 12:13:55;;;;;;;10.23;5.80;;;7.80;99.90;;;;;;5066816;28;20122;-71
2024/02/29 12:16:21;;;;;;;9.38;5.32;;;7.80;99.90;;;;;;5068192;28;20052;-72
2024/02/29 12:18:47;;;;;;;8.48;5.78;;;7.80;99.90;;;;;;5086776;28;20036;-71
2024/02/29 12:21:13;;;;;;;10.02;5.97;;;7.80;99.90;;;;;;5087240;28;20081;-71
2024/02/29 12:23:39;;;;;;;5.90;4.15;;;7.80;99.90;;;;;;5070842;28;20852;-71
2024/02/29 12:26:18;;;;;;;8.65;5.75;;;7.80;99.90;;;;;;5089030;28;20072;-71
2024/02/29 12:28:46;;;;;;;10.15;5.78;;;7.90;99.90;;;;;;5086705;28;20066;-71
2024/02/29 12:31:14;;;;;;;10.43;6.60;;;7.90;99.90;;;;;;5084728;28;20032;-71
2024/02/29 12:33:42;;;;;;;10.02;6.47;;;7.90;99.90;;;;;;5091159;28;20473;-71
2024/02/29 12:36:13;;;;;;;12.18;6.20;;;8.00;99.90;;;;;;5090703;28;20059;-71
2024/02/29 12:38:42;;;;;;;10.02;6.50;;;8.00;99.90;;;;;;5073213;28;20055;-71
2024/02/29 12:41:09;;;;;;;8.85;4.50;;;8.00;99.90;;;;;;5073271;28;20043;-71
2024/02/29 12:43:48;;;;;;;11.93;6.40;;;8.00;99.90;;;;;;5079873;28;20109;-71
2024/02/29 12:46:15;;;;;;;7.57;5.65;;;8.00;99.90;;;;;;5062712;28;20050;-71